createdAt,value
2023-03-26T00:02:35.439Z,97380
2023-03-26T00:14:35.354Z,97380
2023-03-26T00:26:35.329Z,97380
2023-03-26T00:38:35.332Z,97380
2023-03-26T00:50:35.335Z,97370
2023-03-26T01:02:35.429Z,97350
2023-03-26T01:14:35.424Z,97340
2023-03-26T01:26:35.393Z,97330
2023-03-26T01:38:35.389Z,97320
2023-03-26T01:50:35.313Z,97300
2023-03-26T02:02:35.586Z,97300
2023-03-26T02:14:35.422Z,97290
2023-03-26T02:26:35.384Z,97270
2023-03-26T02:38:35.307Z,97240
2023-03-26T02:50:35.321Z,97220
2023-03-26T03:02:35.493Z,97210
2023-03-26T03:14:35.368Z,97190
2023-03-26T03:26:35.391Z,97180
2023-03-26T03:38:35.306Z,97170
2023-03-26T03:50:36.011Z,97160
2023-03-26T04:02:35.483Z,97150
2023-03-26T04:14:35.364Z,97120
2023-03-26T04:26:35.320Z,97120
2023-03-26T04:38:35.316Z,97080
2023-03-26T04:50:35.494Z,97050
2023-03-26T05:02:35.353Z,97020
2023-03-26T05:14:35.418Z,97000
2023-03-26T05:26:35.407Z,96970
2023-03-26T05:38:35.313Z,96950
2023-03-26T05:50:35.350Z,96940
2023-03-26T06:02:35.386Z,96900
2023-03-26T06:14:35.320Z,96890
2023-03-26T06:26:35.303Z,96890
2023-03-26T06:38:35.431Z,96880
2023-03-26T06:50:35.400Z,96870
2023-03-26T07:02:35.342Z,96850
2023-03-26T07:14:35.315Z,96840
2023-03-26T07:26:35.364Z,96850
2023-03-26T07:38:35.409Z,96820
2023-03-26T07:50:35.313Z,96820
2023-03-26T08:02:35.330Z,96780
2023-03-26T08:14:35.423Z,96770
2023-03-26T08:26:35.420Z,96760
2023-03-26T08:38:35.400Z,96740
2023-03-26T08:50:35.344Z,96740
2023-03-26T09:02:35.337Z,96710
2023-03-26T09:14:35.422Z,96700
2023-03-26T09:26:35.333Z,96690
2023-03-26T09:38:35.312Z,96670
2023-03-26T09:50:35.456Z,96660
2023-03-26T10:02:45.379Z,96670
2023-03-26T10:14:35.311Z,96650
2023-03-26T10:26:35.313Z,96660
2023-03-26T10:38:35.313Z,96650
2023-03-26T10:50:35.535Z,96650
2023-03-26T11:02:35.352Z,96620
2023-03-26T11:14:35.639Z,96630
2023-03-26T11:26:36.110Z,96630
2023-03-26T11:38:35.330Z,96620
2023-03-26T11:50:35.446Z,96610
2023-03-26T12:02:35.564Z,96570
2023-03-26T12:14:35.430Z,96570
2023-03-26T12:26:35.341Z,96550
2023-03-26T12:38:35.314Z,96560
2023-03-26T12:50:35.813Z,96560
2023-03-26T13:02:35.504Z,96550
2023-03-26T13:14:35.305Z,96540
2023-03-26T13:26:35.379Z,96550
2023-03-26T13:38:35.323Z,96570
2023-03-26T13:50:35.455Z,96560
2023-03-26T14:02:35.378Z,96550
2023-03-26T14:14:35.322Z,96560
2023-03-26T14:26:35.309Z,96580
2023-03-26T14:38:35.315Z,96570
2023-03-26T14:50:35.449Z,96580
2023-03-26T15:02:35.413Z,96580
2023-03-26T15:14:35.312Z,96590
2023-03-26T15:26:35.372Z,96600
2023-03-26T15:38:35.316Z,96610
2023-03-26T15:50:35.556Z,96620
2023-03-26T16:02:35.327Z,96630
2023-03-26T16:14:35.321Z,96640
2023-03-26T16:26:35.390Z,96640
2023-03-26T16:38:35.313Z,96660
2023-03-26T16:50:35.401Z,96670
2023-03-26T17:02:35.685Z,96680
2023-03-26T17:14:35.316Z,96680
2023-03-26T17:26:35.435Z,96700
2023-03-26T17:38:35.446Z,96720
2023-03-26T17:50:35.434Z,96730
2023-03-26T18:02:35.440Z,96760
2023-03-26T18:14:35.320Z,96780
2023-03-26T18:26:35.335Z,96790
2023-03-26T18:38:38.549Z,96820
2023-03-26T18:50:35.385Z,96840
2023-03-26T19:02:35.536Z,96870
2023-03-26T19:14:35.330Z,96880
2023-03-26T19:26:35.419Z,96880
2023-03-26T19:38:35.322Z,96910
2023-03-26T19:50:37.151Z,96940
2023-03-26T20:02:35.621Z,96950
2023-03-26T20:14:35.320Z,96980
2023-03-26T20:26:35.321Z,97000
2023-03-26T20:38:39.453Z,97020
2023-03-26T20:50:35.956Z,97030
2023-03-26T21:02:35.491Z,97040
2023-03-26T21:14:35.313Z,97080
2023-03-26T21:26:35.414Z,97110
2023-03-26T21:38:35.310Z,97140
2023-03-26T21:50:35.424Z,97160
2023-03-26T22:02:35.426Z,97200
2023-03-26T22:14:35.330Z,97210
2023-03-26T22:26:35.410Z,97230
2023-03-26T22:38:35.307Z,97270
2023-03-26T22:50:35.367Z,97290
2023-03-26T23:02:35.344Z,97330
2023-03-26T23:14:35.424Z,97350
2023-03-26T23:26:47.852Z,97380
2023-03-26T23:38:43.582Z,97420
2023-03-26T23:50:35.380Z,97430
